createdAt,value
2023-04-30T00:00:11.254Z,14.05
2023-04-30T00:02:39.624Z,14.95
2023-04-30T00:05:08.068Z,12.90
2023-04-30T00:07:36.122Z,14.90
2023-04-30T00:10:05.627Z,13.70
2023-04-30T00:12:34.837Z,12.63
2023-04-30T00:15:02.649Z,13.25
2023-04-30T00:17:30.524Z,12.57
2023-04-30T00:19:58.312Z,13.63
2023-04-30T00:22:26.137Z,13.10
2023-04-30T00:24:54.055Z,14.75
2023-04-30T00:27:21.896Z,13.45
2023-04-30T00:29:51.250Z,15.25
2023-04-30T00:32:19.207Z,14.15
2023-04-30T00:34:47.257Z,14.40
2023-04-30T00:37:15.096Z,14.40
2023-04-30T00:39:42.944Z,15.20
2023-04-30T00:42:10.838Z,15.80
2023-04-30T00:44:38.583Z,14.80
2023-04-30T00:47:07.735Z,13.57
2023-04-30T00:49:35.724Z,13.60
2023-04-30T00:52:03.641Z,14.65
2023-04-30T00:54:31.746Z,14.07
2023-04-30T00:56:59.874Z,14.75
2023-04-30T00:59:30.100Z,15.60
2023-04-30T01:01:57.981Z,15.45
2023-04-30T01:04:27.504Z,15.40
2023-04-30T01:06:55.562Z,13.98
2023-04-30T01:09:23.549Z,13.27
2023-04-30T01:12:04.746Z,13.18
2023-04-30T01:14:41.949Z,14.05
2023-04-30T01:17:18.753Z,12.98
2023-04-30T01:19:48.240Z,16.80
2023-04-30T01:22:32.990Z,14.65
2023-04-30T01:25:20.311Z,16.38
2023-04-30T01:28:15.936Z,14.25
2023-04-30T01:30:45.792Z,14.05
2023-04-30T01:33:13.828Z,15.10
2023-04-30T01:35:58.114Z,16.80
2023-04-30T01:38:35.917Z,14.20
2023-04-30T01:41:11.670Z,15.43
2023-04-30T01:43:51.061Z,14.43
2023-04-30T01:46:25.753Z,15.00
2023-04-30T01:48:59.970Z,13.27
2023-04-30T01:51:33.795Z,14.80
2023-04-30T01:54:07.250Z,15.05
2023-04-30T01:56:41.866Z,17.35
2023-04-30T01:59:12.036Z,16.33
2023-04-30T02:01:39.886Z,14.48
2023-04-30T02:04:07.703Z,17.98
2023-04-30T02:06:35.734Z,16.92
2023-04-30T02:09:05.425Z,14.85
2023-04-30T02:11:33.437Z,16.60
2023-04-30T02:14:01.271Z,19.08
2023-04-30T02:16:30.458Z,20.40
2023-04-30T02:18:58.272Z,17.77
2023-04-30T02:21:27.289Z,18.88
2023-04-30T02:23:55.528Z,19.08
2023-04-30T02:26:23.304Z,19.25
2023-04-30T02:28:51.008Z,17.27
2023-04-30T02:31:18.981Z,18.65
2023-04-30T02:33:48.360Z,19.38
2023-04-30T02:36:16.105Z,15.60
2023-04-30T02:38:43.822Z,18.08
2023-04-30T02:41:11.530Z,17.42
2023-04-30T02:43:39.329Z,18.88
2023-04-30T02:46:07.163Z,16.67
2023-04-30T02:48:34.890Z,19.15
2023-04-30T02:51:04.644Z,20.88
2023-04-30T02:53:32.425Z,16.35
2023-04-30T02:56:00.650Z,18.95
2023-04-30T02:58:28.468Z,16.08
2023-04-30T03:00:56.351Z,14.32
2023-04-30T03:03:24.197Z,18.02
2023-04-30T03:05:52.079Z,15.00
2023-04-30T03:08:21.240Z,15.18
2023-04-30T03:10:49.069Z,16.08
2023-04-30T03:13:16.883Z,18.50
2023-04-30T03:15:45.232Z,16.42
2023-04-30T03:18:13.148Z,15.52
2023-04-30T03:20:41.016Z,18.30
2023-04-30T03:23:08.733Z,14.27
2023-04-30T03:25:40.476Z,15.75
2023-04-30T03:28:08.234Z,14.23
2023-04-30T03:30:36.584Z,19.17
2023-04-30T03:33:06.644Z,14.48
2023-04-30T03:35:34.656Z,16.10
2023-04-30T03:38:02.444Z,18.85
2023-04-30T03:40:30.193Z,16.52
2023-04-30T03:42:59.440Z,19.88
2023-04-30T03:45:27.239Z,18.40
2023-04-30T03:47:55.216Z,18.52
2023-04-30T03:50:23.019Z,19.92
2023-04-30T03:52:50.800Z,19.35
2023-04-30T03:55:18.795Z,18.08
2023-04-30T03:57:46.604Z,21.98
2023-04-30T04:00:16.309Z,16.27
2023-04-30T04:02:44.323Z,20.77
2023-04-30T04:05:12.135Z,22.83
2023-04-30T04:07:39.942Z,19.70
2023-04-30T04:10:08.855Z,20.75
2023-04-30T04:12:36.956Z,20.13
2023-04-30T04:15:05.149Z,20.20
2023-04-30T04:17:34.302Z,17.45
2023-04-30T04:20:02.124Z,23.00
2023-04-30T04:22:29.921Z,25.33
2023-04-30T04:24:57.683Z,18.15
2023-04-30T04:27:25.450Z,18.98
2023-04-30T04:29:55.165Z,19.48
2023-04-30T04:32:24.583Z,18.25
2023-04-30T04:34:55.354Z,20.85
2023-04-30T04:37:23.418Z,17.30
2023-04-30T04:39:51.602Z,22.48
2023-04-30T04:42:20.080Z,18.58
2023-04-30T04:44:48.135Z,17.50
2023-04-30T04:47:16.703Z,21.27
2023-04-30T04:49:44.483Z,18.13
2023-04-30T04:52:13.663Z,21.92
2023-04-30T04:54:41.546Z,18.08
2023-04-30T04:57:09.333Z,17.02
2023-04-30T04:59:37.102Z,19.45
2023-04-30T05:02:04.937Z,19.45
2023-04-30T05:04:32.817Z,17.35
2023-04-30T05:07:00.659Z,16.30
2023-04-30T05:09:29.750Z,14.27
2023-04-30T05:11:57.491Z,15.43
2023-04-30T05:14:25.358Z,16.60
2023-04-30T05:16:53.354Z,15.70
2023-04-30T05:19:21.049Z,13.88
2023-04-30T05:21:48.840Z,13.77
2023-04-30T05:24:16.669Z,14.77
2023-04-30T05:26:45.871Z,13.20
2023-04-30T05:29:14.818Z,14.20
2023-04-30T05:31:42.845Z,15.43
2023-04-30T05:34:10.600Z,15.38
2023-04-30T05:36:39.136Z,13.95
2023-04-30T05:39:06.883Z,15.93
2023-04-30T05:41:34.690Z,16.20
2023-04-30T05:44:05.059Z,14.95
2023-04-30T05:46:32.984Z,16.42
2023-04-30T05:49:00.856Z,15.63
2023-04-30T05:51:29.402Z,16.33
2023-04-30T05:53:57.573Z,16.65
2023-04-30T05:56:26.150Z,14.23
2023-04-30T05:58:53.951Z,14.27
2023-04-30T06:01:24.411Z,14.55
2023-04-30T06:03:52.429Z,13.93
2023-04-30T06:06:20.412Z,14.50
2023-04-30T06:08:48.318Z,16.15
2023-04-30T06:11:16.463Z,15.45
2023-04-30T06:13:44.500Z,13.35
2023-04-30T06:16:12.659Z,15.75
2023-04-30T06:18:42.050Z,13.85
2023-04-30T06:21:09.878Z,15.88
2023-04-30T06:23:38.607Z,15.18
2023-04-30T06:26:06.368Z,15.57
2023-04-30T06:28:34.232Z,16.17
2023-04-30T06:31:02.095Z,13.05
2023-04-30T06:33:30.167Z,15.30
2023-04-30T06:36:00.639Z,13.95
2023-04-30T06:38:28.542Z,15.40
2023-04-30T06:40:56.512Z,14.18
2023-04-30T06:43:25.741Z,14.60
2023-04-30T06:45:53.572Z,15.52
2023-04-30T06:48:21.447Z,15.35
2023-04-30T06:50:49.348Z,13.60
2023-04-30T06:53:18.684Z,13.82
2023-04-30T06:55:47.530Z,15.52
2023-04-30T06:58:15.432Z,12.85
2023-04-30T07:00:43.914Z,17.38
2023-04-30T07:03:11.905Z,13.75
2023-04-30T07:05:39.889Z,13.02
2023-04-30T07:08:08.729Z,13.32
2023-04-30T07:10:38.372Z,12.77
2023-04-30T07:13:08.330Z,12.43
2023-04-30T07:15:37.577Z,15.25
2023-04-30T07:18:07.536Z,13.05
2023-04-30T07:20:35.682Z,12.73
2023-04-30T07:23:03.593Z,15.65
2023-04-30T07:25:31.549Z,13.85
2023-04-30T07:28:01.181Z,13.75
2023-04-30T07:30:29.028Z,17.25
2023-04-30T07:32:57.623Z,14.50
2023-04-30T07:35:25.685Z,13.70
2023-04-30T07:37:53.553Z,13.77
2023-04-30T07:40:29.149Z,13.45
2023-04-30T07:43:05.701Z,12.02
2023-04-30T07:45:34.839Z,12.55
2023-04-30T07:48:03.112Z,13.68
2023-04-30T07:50:34.009Z,13.30
2023-04-30T07:53:02.938Z,12.65
2023-04-30T07:55:31.247Z,13.07
2023-04-30T07:58:00.025Z,12.73
2023-04-30T08:00:31.068Z,12.40
2023-04-30T08:03:00.399Z,12.25
2023-04-30T08:05:28.419Z,14.23
2023-04-30T08:07:56.175Z,12.60
2023-04-30T08:10:24.284Z,12.88
2023-04-30T08:12:53.150Z,12.23
2023-04-30T08:15:22.224Z,12.02
2023-04-30T08:17:53.016Z,12.05
2023-04-30T08:20:23.917Z,10.60
2023-04-30T08:22:52.309Z,10.60
2023-04-30T08:25:20.807Z,10.20
2023-04-30T08:27:49.033Z,11.00
2023-04-30T08:30:17.390Z,10.00
2023-04-30T08:32:46.115Z,11.20
2023-04-30T08:35:17.201Z,12.02
2023-04-30T08:37:45.226Z,11.80
2023-04-30T08:40:14.128Z,10.80
2023-04-30T08:42:46.349Z,12.10
2023-04-30T08:45:14.691Z,9.82
2023-04-30T08:47:43.072Z,9.73
2023-04-30T08:50:10.994Z,11.90
2023-04-30T08:52:41.506Z,8.68
2023-04-30T08:55:11.280Z,10.52
2023-04-30T08:57:39.750Z,10.43
2023-04-30T09:00:08.890Z,7.00
2023-04-30T09:02:40.776Z,8.63
2023-04-30T09:05:12.636Z,9.00
2023-04-30T09:07:48.921Z,8.15
2023-04-30T09:10:24.093Z,6.70
2023-04-30T09:13:01.694Z,6.75
2023-04-30T09:15:30.488Z,7.78
2023-04-30T09:18:09.579Z,7.55
2023-04-30T09:20:38.630Z,6.13
2023-04-30T09:23:09.400Z,7.32
2023-04-30T09:25:41.760Z,6.85
2023-04-30T09:28:14.230Z,6.13
2023-04-30T09:33:12.284Z,6.78
2023-04-30T09:35:41.825Z,6.68
2023-04-30T09:38:27.590Z,6.15
2023-04-30T09:40:55.444Z,5.65
2023-04-30T09:43:23.367Z,5.97
2023-04-30T09:45:51.727Z,4.97
2023-04-30T09:48:22.288Z,5.68
2023-04-30T09:50:50.613Z,7.30
2023-04-30T09:53:21.615Z,7.47
2023-04-30T09:55:50.924Z,8.70
2023-04-30T09:58:20.576Z,8.50
2023-04-30T10:00:49.630Z,7.85
2023-04-30T10:03:17.725Z,8.93
2023-04-30T10:05:48.437Z,7.85
2023-04-30T10:08:24.208Z,8.15
2023-04-30T10:10:59.576Z,8.57
2023-04-30T10:13:31.448Z,8.07
2023-04-30T10:16:03.193Z,9.18
2023-04-30T10:18:35.738Z,7.53
2023-04-30T10:21:10.366Z,8.35
2023-04-30T10:23:42.255Z,8.93
2023-04-30T10:26:12.374Z,6.10
2023-04-30T10:28:40.851Z,5.47
2023-04-30T10:31:10.765Z,6.20
2023-04-30T10:33:50.026Z,8.82
2023-04-30T10:36:27.867Z,6.40
2023-04-30T10:38:58.308Z,4.97
2023-04-30T10:41:28.538Z,6.80
2023-04-30T10:44:01.843Z,6.45
2023-04-30T10:46:30.189Z,3.97
2023-04-30T10:48:58.285Z,4.25
2023-04-30T10:51:46.391Z,4.30
2023-04-30T10:54:18.846Z,4.13
2023-04-30T10:56:48.187Z,4.03
2023-04-30T10:59:16.397Z,4.07
2023-04-30T11:01:58.732Z,3.53
2023-04-30T11:04:27.438Z,3.42
2023-04-30T11:07:08.721Z,3.40
2023-04-30T11:09:42.463Z,3.47
2023-04-30T11:12:16.366Z,5.75
2023-04-30T11:14:46.492Z,3.60
2023-04-30T11:17:25.245Z,3.35
2023-04-30T11:19:55.055Z,3.58
2023-04-30T11:22:24.809Z,4.47
2023-04-30T11:25:05.770Z,3.60
2023-04-30T11:27:35.520Z,3.53
2023-04-30T11:30:05.527Z,3.78
2023-04-30T11:32:35.915Z,4.32
2023-04-30T11:35:04.944Z,3.30
2023-04-30T11:37:35.814Z,5.47
2023-04-30T11:40:07.975Z,2.90
2023-04-30T11:42:36.727Z,3.63
2023-04-30T11:45:06.832Z,4.80
2023-04-30T11:47:45.686Z,2.87
2023-04-30T11:50:15.259Z,4.13
2023-04-30T11:52:44.216Z,3.83
2023-04-30T11:55:18.209Z,2.70
2023-04-30T11:57:47.750Z,2.70
2023-04-30T12:00:17.833Z,3.15
2023-04-30T12:02:48.293Z,5.32
2023-04-30T12:05:18.113Z,3.75
2023-04-30T12:07:48.189Z,3.75
2023-04-30T12:10:17.962Z,3.15
2023-04-30T12:12:46.122Z,2.83
2023-04-30T12:15:18.884Z,2.38
2023-04-30T12:17:48.160Z,2.30
2023-04-30T12:20:17.170Z,2.78
2023-04-30T12:22:45.721Z,2.95
2023-04-30T12:25:15.116Z,3.05
2023-04-30T12:27:48.936Z,3.35
2023-04-30T12:30:21.339Z,3.55
2023-04-30T12:35:22.076Z,3.67
2023-04-30T12:37:51.338Z,3.35
2023-04-30T12:40:20.571Z,5.13
2023-04-30T12:42:51.995Z,2.95
2023-04-30T12:45:44.520Z,2.65
2023-04-30T12:50:40.851Z,1.50
2023-04-30T12:53:10.026Z,2.00
2023-04-30T12:55:39.508Z,2.15
2023-04-30T12:58:10.932Z,2.22
2023-04-30T13:00:50.333Z,2.60
2023-04-30T13:03:21.188Z,2.97
2023-04-30T13:05:50.888Z,3.15
2023-04-30T13:08:20.797Z,2.75
2023-04-30T13:10:50.110Z,2.60
2023-04-30T13:13:20.472Z,2.13
2023-04-30T13:15:48.597Z,1.92
2023-04-30T13:18:17.009Z,2.08
2023-04-30T13:20:46.005Z,2.35
2023-04-30T13:23:14.090Z,2.75
2023-04-30T13:25:42.788Z,2.30
2023-04-30T13:28:10.761Z,3.13
2023-04-30T13:30:41.217Z,2.72
2023-04-30T13:33:09.584Z,2.30
2023-04-30T13:35:39.086Z,2.55
2023-04-30T13:38:07.436Z,2.53
2023-04-30T13:40:35.593Z,2.22
2023-04-30T13:43:04.385Z,2.90
2023-04-30T13:45:32.384Z,2.45
2023-04-30T13:48:01.876Z,1.77
2023-04-30T13:50:30.804Z,1.90
2023-04-30T13:52:59.501Z,1.90
2023-04-30T13:55:30.003Z,1.50
2023-04-30T13:57:58.726Z,2.75
2023-04-30T14:00:26.826Z,2.05
2023-04-30T14:02:55.810Z,1.73
2023-04-30T14:05:25.466Z,2.28
2023-04-30T14:07:53.451Z,2.05
2023-04-30T14:10:21.687Z,1.83
2023-04-30T14:12:49.785Z,4.60
2023-04-30T14:15:17.998Z,3.17
2023-04-30T14:17:46.144Z,5.28
2023-04-30T14:20:14.996Z,1.98
2023-04-30T14:22:55.503Z,2.75
2023-04-30T14:25:24.099Z,3.90
2023-04-30T14:27:52.533Z,2.47
2023-04-30T14:30:20.522Z,3.22
2023-04-30T14:32:48.619Z,2.67
2023-04-30T14:35:16.766Z,2.40
2023-04-30T14:37:46.469Z,2.35
2023-04-30T14:40:16.413Z,3.13
2023-04-30T14:42:44.536Z,2.17
2023-04-30T14:45:13.020Z,3.20
2023-04-30T14:47:42.290Z,1.83
2023-04-30T14:50:11.207Z,4.65
2023-04-30T14:52:42.254Z,6.05
2023-04-30T14:55:12.833Z,11.40
2023-04-30T14:57:41.302Z,3.58
2023-04-30T15:00:11.312Z,2.88
2023-04-30T15:02:39.798Z,3.17
2023-04-30T15:05:09.222Z,2.30
2023-04-30T15:07:38.138Z,2.35
2023-04-30T15:10:08.198Z,1.95
2023-04-30T15:12:39.957Z,2.25
2023-04-30T15:15:09.869Z,2.55
2023-04-30T15:17:41.542Z,4.90
2023-04-30T15:20:11.043Z,2.80
2023-04-30T15:22:39.409Z,2.53
2023-04-30T15:25:13.644Z,2.17
2023-04-30T15:27:47.748Z,2.10
2023-04-30T15:30:18.884Z,3.63
2023-04-30T15:32:48.800Z,3.05
2023-04-30T15:35:18.832Z,2.83
2023-04-30T15:37:47.209Z,3.05
2023-04-30T15:40:18.161Z,2.58
2023-04-30T15:42:48.230Z,3.33
2023-04-30T15:45:16.667Z,2.55
2023-04-30T15:47:45.724Z,3.15
2023-04-30T15:50:14.205Z,2.72
2023-04-30T15:52:42.501Z,3.70
2023-04-30T15:55:11.371Z,2.92
2023-04-30T15:57:39.542Z,3.28
2023-04-30T16:00:11.447Z,3.05
2023-04-30T16:02:41.518Z,2.45
2023-04-30T16:05:10.518Z,2.47
2023-04-30T16:07:40.362Z,3.13
2023-04-30T16:10:11.084Z,2.45
2023-04-30T16:12:39.489Z,3.33
2023-04-30T16:15:11.172Z,2.72
2023-04-30T16:17:39.487Z,4.63
2023-04-30T16:20:09.228Z,2.65
2023-04-30T16:22:37.696Z,1.50
2023-04-30T16:25:08.056Z,2.50
2023-04-30T16:27:39.625Z,2.17
2023-04-30T16:30:11.480Z,1.42
2023-04-30T16:32:46.060Z,5.00
2023-04-30T16:35:14.666Z,2.08
2023-04-30T16:37:42.804Z,2.03
2023-04-30T16:40:12.377Z,2.45
2023-04-30T16:42:40.671Z,2.65
2023-04-30T16:45:11.316Z,2.47
2023-04-30T16:47:41.865Z,2.35
2023-04-30T16:50:11.205Z,2.20
2023-04-30T16:52:39.440Z,2.53
2023-04-30T16:55:11.607Z,2.85
2023-04-30T16:57:39.667Z,4.28
2023-04-30T17:00:12.559Z,2.55
2023-04-30T17:02:41.077Z,2.42
2023-04-30T17:05:11.097Z,4.40
2023-04-30T17:07:44.671Z,3.30
2023-04-30T17:10:14.650Z,1.55
2023-04-30T17:12:46.167Z,2.58
2023-04-30T17:15:29.446Z,2.05
2023-04-30T17:17:58.993Z,2.33
2023-04-30T17:20:27.266Z,3.22
2023-04-30T17:22:56.281Z,2.33
2023-04-30T17:25:24.656Z,3.35
2023-04-30T17:27:57.576Z,2.25
2023-04-30T17:30:27.011Z,1.35
2023-04-30T17:32:56.753Z,2.85
2023-04-30T17:35:25.438Z,1.88
2023-04-30T17:37:53.714Z,3.13
2023-04-30T17:40:22.384Z,2.13
2023-04-30T17:42:52.066Z,2.60
2023-04-30T17:45:20.337Z,2.45
2023-04-30T17:47:49.966Z,3.63
2023-04-30T17:50:23.818Z,4.00
2023-04-30T17:53:23.621Z,3.10
2023-04-30T17:56:30.797Z,3.80
2023-04-30T17:59:32.371Z,3.00
2023-04-30T20:04:04.639Z,2.95
2023-04-30T20:10:30.493Z,6.03
2023-04-30T20:13:47.954Z,5.32
2023-04-30T20:17:28.551Z,4.28
2023-04-30T20:20:28.633Z,3.45
2023-04-30T20:22:54.855Z,5.22
2023-04-30T20:25:35.174Z,3.70
2023-04-30T20:28:44.281Z,6.15
2023-04-30T20:31:37.419Z,4.05
2023-04-30T20:38:39.089Z,3.17
2023-04-30T20:49:09.275Z,2.42
2023-04-30T20:51:36.851Z,4.53
2023-04-30T20:54:05.417Z,3.25
2023-04-30T20:56:34.946Z,3.65
2023-04-30T20:59:05.902Z,5.85
2023-04-30T21:01:34.102Z,5.95
2023-04-30T21:04:04.819Z,5.82
2023-04-30T21:06:33.241Z,6.38
2023-04-30T21:09:53.403Z,4.10
2023-04-30T21:12:23.238Z,5.00
2023-04-30T21:14:52.143Z,4.95
2023-04-30T21:17:20.298Z,3.65
2023-04-30T21:19:53.352Z,4.68
2023-04-30T21:22:24.152Z,4.32
2023-04-30T21:24:57.115Z,5.28
2023-04-30T21:27:26.807Z,5.28
2023-04-30T21:29:55.236Z,5.40
2023-04-30T21:32:23.588Z,4.22
2023-04-30T21:34:53.683Z,3.22
2023-04-30T21:37:22.199Z,4.43
2023-04-30T21:39:51.588Z,8.80
2023-04-30T21:42:22.126Z,6.50
2023-04-30T21:44:51.862Z,4.97
2023-04-30T21:47:22.031Z,4.97
2023-04-30T21:49:50.380Z,6.70
2023-04-30T21:52:18.622Z,5.13
2023-04-30T21:54:50.202Z,5.18
2023-04-30T21:57:19.541Z,5.40
2023-04-30T21:59:47.753Z,5.35
2023-04-30T22:02:23.948Z,4.45
2023-04-30T22:04:58.177Z,5.05
2023-04-30T22:07:27.577Z,5.72
2023-04-30T22:10:03.471Z,5.40
2023-04-30T22:12:32.054Z,5.50
2023-04-30T22:15:05.530Z,6.78
2023-04-30T22:17:35.625Z,6.65
2023-04-30T22:20:27.398Z,11.50
2023-04-30T22:22:56.015Z,8.45
2023-04-30T22:25:24.665Z,5.80
2023-04-30T22:27:52.995Z,4.95
2023-04-30T22:30:24.445Z,6.60
2023-04-30T22:32:57.609Z,7.28
2023-04-30T22:35:29.007Z,8.25
2023-04-30T22:38:01.956Z,6.15
2023-04-30T22:40:31.010Z,6.22
2023-04-30T22:43:00.288Z,7.72
2023-04-30T22:45:30.997Z,7.30
2023-04-30T22:48:01.956Z,5.03
2023-04-30T22:50:32.105Z,5.40
2023-04-30T22:53:02.857Z,7.80
2023-04-30T22:55:33.649Z,7.85
2023-04-30T22:58:02.108Z,6.70
2023-04-30T23:00:32.651Z,6.43
2023-04-30T23:03:02.644Z,6.82
2023-04-30T23:05:31.028Z,7.07
2023-04-30T23:07:59.363Z,8.00
2023-04-30T23:10:27.740Z,6.22
2023-04-30T23:12:56.635Z,5.53
2023-04-30T23:15:28.487Z,7.03
2023-04-30T23:17:58.471Z,6.40
2023-04-30T23:20:28.525Z,6.50
2023-04-30T23:22:59.977Z,5.57
2023-04-30T23:25:29.319Z,7.43
2023-04-30T23:27:58.257Z,5.72
2023-04-30T23:30:26.811Z,5.70
2023-04-30T23:32:54.892Z,7.10
2023-04-30T23:35:27.508Z,6.38
2023-04-30T23:37:57.371Z,5.40
2023-04-30T23:40:27.059Z,6.35
2023-04-30T23:42:55.537Z,8.85
2023-04-30T23:45:26.040Z,7.63
2023-04-30T23:47:54.214Z,7.07
2023-04-30T23:50:22.446Z,7.18
2023-04-30T23:52:50.686Z,9.02
2023-04-30T23:55:23.300Z,7.47
2023-04-30T23:57:53.392Z,6.25
